createdAt,value
2018-11-28T00:00:59.495Z,25.50
2018-11-28T00:03:34.098Z,27.60
2018-11-28T00:06:08.929Z,24.50
2018-11-28T00:08:43.821Z,26.50
2018-11-28T00:11:18.476Z,24.10
2018-11-28T00:13:53.313Z,25.00
2018-11-28T00:16:28.116Z,23.00
2018-11-28T00:19:02.660Z,25.03
2018-11-28T00:21:37.193Z,26.97
2018-11-28T00:24:11.761Z,24.30
2018-11-28T00:26:46.483Z,23.40
2018-11-28T00:29:20.960Z,24.37
2018-11-28T00:31:55.763Z,27.97
2018-11-28T00:34:30.390Z,20.57
2018-11-28T00:37:04.944Z,25.90
2018-11-28T00:39:39.607Z,25.30
2018-11-28T00:42:14.020Z,22.27
2018-11-28T00:44:48.959Z,24.70
2018-11-28T00:47:23.724Z,24.70
2018-11-28T00:49:58.413Z,24.50
2018-11-28T00:52:34.009Z,24.93
2018-11-28T00:55:11.084Z,29.07
2018-11-28T00:57:45.913Z,26.40
2018-11-28T01:00:23.498Z,26.47
2018-11-28T01:02:58.309Z,23.40
2018-11-28T01:05:33.501Z,26.13
2018-11-28T01:08:08.469Z,24.47
2018-11-28T01:10:43.585Z,25.20
2018-11-28T01:13:18.609Z,24.70
2018-11-28T01:15:53.579Z,25.20
2018-11-28T01:18:28.407Z,26.27
2018-11-28T01:21:02.887Z,25.27
2018-11-28T01:23:37.468Z,28.30
2018-11-28T01:26:12.052Z,23.80
2018-11-28T01:28:46.826Z,24.03
2018-11-28T01:31:21.473Z,23.53
2018-11-28T01:33:56.122Z,24.47
2018-11-28T01:36:31.234Z,26.77
2018-11-28T01:39:07.417Z,26.70
2018-11-28T01:41:42.797Z,25.17
2018-11-28T01:44:18.338Z,25.63
2018-11-28T01:46:53.396Z,26.63
2018-11-28T01:49:28.018Z,26.00
2018-11-28T01:52:02.824Z,25.20
2018-11-28T01:54:37.744Z,25.50
2018-11-28T01:57:13.408Z,20.07
2018-11-28T01:59:48.270Z,25.70
2018-11-28T02:02:23.150Z,22.97
2018-11-28T02:04:57.705Z,24.40
2018-11-28T02:07:32.360Z,22.63
2018-11-28T02:10:12.037Z,24.57
2018-11-28T02:12:46.681Z,24.77
2018-11-28T02:15:25.403Z,26.20
2018-11-28T02:18:00.088Z,26.20
2018-11-28T02:20:34.866Z,23.83
2018-11-28T02:23:09.855Z,23.60
2018-11-28T02:25:46.898Z,23.80
2018-11-28T02:28:21.565Z,25.20
2018-11-28T02:30:56.518Z,26.53
2018-11-28T02:33:31.101Z,24.93
2018-11-28T02:36:05.581Z,23.87
2018-11-28T02:38:40.234Z,23.27
2018-11-28T02:41:15.057Z,20.13
2018-11-28T02:43:49.665Z,20.87
2018-11-28T02:46:30.361Z,21.07
2018-11-28T02:49:05.900Z,25.43
2018-11-28T02:51:40.861Z,24.80
2018-11-28T02:54:15.813Z,25.33
2018-11-28T02:56:50.628Z,23.03
2018-11-28T02:59:25.349Z,24.63
2018-11-28T03:02:00.100Z,22.70
2018-11-28T03:04:34.631Z,22.17
2018-11-28T03:07:09.677Z,22.00
2018-11-28T03:09:44.332Z,22.20
2018-11-28T03:12:19.062Z,23.80
2018-11-28T03:14:53.693Z,24.97
2018-11-28T03:17:28.573Z,23.27
2018-11-28T03:20:03.385Z,25.03
2018-11-28T03:22:38.265Z,23.67
2018-11-28T03:25:13.131Z,23.20
2018-11-28T03:27:48.042Z,22.07
2018-11-28T03:30:22.933Z,23.07
2018-11-28T03:32:57.473Z,22.00
2018-11-28T03:35:32.146Z,22.30
2018-11-28T03:38:07.040Z,21.33
2018-11-28T03:40:41.994Z,21.67
2018-11-28T03:43:16.973Z,22.37
2018-11-28T03:45:51.737Z,20.47
2018-11-28T03:48:26.641Z,23.77
2018-11-28T03:51:01.438Z,21.53
2018-11-28T03:53:36.265Z,22.03
2018-11-28T03:56:11.128Z,23.50
2018-11-28T03:58:46.064Z,24.23
2018-11-28T04:01:20.842Z,19.60
2018-11-28T04:03:55.660Z,23.60
2018-11-28T04:06:30.536Z,22.70
2018-11-28T04:09:08.117Z,23.90
2018-11-28T04:11:43.041Z,21.10
2018-11-28T04:14:17.806Z,22.70
2018-11-28T04:16:52.845Z,22.30
2018-11-28T04:19:27.357Z,19.73
2018-11-28T04:22:02.200Z,23.10
2018-11-28T04:24:36.675Z,20.50
2018-11-28T04:27:11.249Z,22.50
2018-11-28T04:29:45.870Z,20.90
2018-11-28T04:32:20.689Z,20.43
2018-11-28T04:34:55.645Z,21.87
2018-11-28T04:37:30.691Z,23.50
2018-11-28T04:40:08.294Z,20.50
2018-11-28T04:42:42.981Z,20.30
2018-11-28T04:45:21.848Z,20.97
2018-11-28T04:47:56.706Z,19.23
2018-11-28T04:50:31.632Z,20.87
2018-11-28T04:53:07.465Z,21.93
2018-11-28T04:55:42.237Z,20.47
2018-11-28T04:58:17.257Z,20.97
2018-11-28T05:00:52.022Z,22.23
2018-11-28T05:03:26.747Z,20.37
2018-11-28T05:06:01.468Z,21.50
2018-11-28T05:08:36.012Z,20.10
2018-11-28T05:11:11.012Z,20.53
2018-11-28T05:13:45.782Z,21.57
2018-11-28T05:16:20.556Z,20.87
2018-11-28T05:18:55.447Z,25.27
2018-11-28T05:21:30.251Z,19.80
2018-11-28T05:24:05.243Z,21.77
2018-11-28T05:26:39.768Z,23.07
2018-11-28T05:29:15.600Z,22.30
2018-11-28T05:31:50.501Z,24.50
2018-11-28T05:34:25.530Z,21.80
2018-11-28T05:37:00.361Z,26.07
2018-11-28T05:39:35.160Z,23.33
2018-11-28T05:42:09.890Z,23.53
2018-11-28T05:44:44.585Z,26.30
2018-11-28T05:47:19.240Z,26.40
2018-11-28T05:49:54.044Z,24.20
2018-11-28T05:52:28.628Z,28.20
2018-11-28T05:55:03.215Z,22.67
2018-11-28T05:57:37.929Z,28.17
2018-11-28T06:00:36.640Z,27.47
2018-11-28T06:03:13.205Z,26.80
2018-11-28T06:05:47.929Z,26.73
2018-11-28T06:08:22.791Z,27.70
2018-11-28T06:10:57.368Z,26.40
2018-11-28T06:13:32.024Z,25.73
2018-11-28T06:16:06.610Z,24.13
2018-11-28T06:18:41.317Z,24.93
2018-11-28T06:21:15.944Z,25.07
2018-11-28T06:23:51.005Z,21.30
2018-11-28T06:26:26.209Z,24.00
2018-11-28T06:29:00.996Z,26.13
2018-11-28T06:31:35.988Z,22.47
2018-11-28T06:34:10.769Z,21.23
2018-11-28T06:36:46.092Z,25.30
2018-11-28T06:39:20.687Z,24.93
2018-11-28T06:41:55.453Z,19.17
2018-11-28T06:44:30.375Z,21.70
2018-11-28T06:47:06.464Z,23.50
2018-11-28T06:49:41.339Z,20.90
2018-11-28T06:52:16.003Z,24.87
2018-11-28T06:54:51.248Z,23.47
2018-11-28T06:57:26.072Z,24.10
2018-11-28T07:00:00.780Z,24.80
2018-11-28T07:02:35.677Z,22.73
2018-11-28T07:05:11.072Z,26.10
2018-11-28T07:07:45.936Z,24.23
2018-11-28T07:10:21.352Z,23.37
2018-11-28T07:12:56.109Z,25.77
2018-11-28T07:15:30.685Z,24.60
2018-11-28T07:18:16.664Z,23.93
2018-11-28T07:20:51.129Z,23.47
2018-11-28T07:23:25.603Z,23.87
2018-11-28T07:26:00.233Z,23.50
2018-11-28T07:28:34.889Z,24.53
2018-11-28T07:31:09.605Z,24.00
2018-11-28T07:33:44.260Z,22.83
2018-11-28T07:36:18.905Z,22.50
2018-11-28T07:38:54.205Z,21.87
2018-11-28T07:41:28.300Z,27.27
2018-11-28T07:44:02.807Z,18.00
2018-11-28T07:46:37.608Z,20.90
2018-11-28T07:49:13.138Z,23.30
2018-11-28T07:51:47.922Z,23.13
2018-11-28T07:54:22.687Z,18.40
2018-11-28T07:56:57.345Z,22.83
2018-11-28T07:59:32.144Z,20.07
2018-11-28T08:02:06.591Z,19.77
2018-11-28T08:04:41.278Z,23.30
2018-11-28T08:07:16.193Z,21.13
2018-11-28T08:09:50.968Z,21.80
2018-11-28T08:12:25.808Z,23.30
2018-11-28T08:15:00.447Z,21.13
2018-11-28T08:17:36.301Z,22.60
2018-11-28T08:20:09.855Z,21.67
2018-11-28T08:22:44.501Z,20.77
2018-11-28T08:25:19.088Z,21.70
2018-11-28T08:27:53.989Z,20.93
2018-11-28T08:30:28.564Z,21.17
2018-11-28T08:33:03.175Z,21.67
2018-11-28T08:35:37.852Z,20.90
2018-11-28T08:38:12.408Z,19.00
2018-11-28T08:40:46.980Z,20.50
2018-11-28T08:43:21.916Z,19.30
2018-11-28T08:45:56.478Z,21.63
2018-11-28T08:48:31.107Z,20.97
2018-11-28T08:51:05.675Z,22.03
2018-11-28T08:53:40.337Z,22.37
2018-11-28T08:56:14.776Z,21.87
2018-11-28T08:58:49.373Z,22.43
2018-11-28T09:01:24.053Z,22.20
2018-11-28T09:03:58.703Z,23.03
2018-11-28T09:06:33.312Z,22.93
2018-11-28T09:09:08.383Z,21.60
2018-11-28T09:11:42.823Z,20.63
2018-11-28T09:14:17.277Z,21.90
2018-11-28T09:16:51.820Z,21.83
2018-11-28T09:19:27.728Z,21.47
2018-11-28T09:22:02.160Z,20.20
2018-11-28T09:24:36.688Z,23.30
2018-11-28T09:27:12.145Z,22.57
2018-11-28T09:29:46.929Z,25.33
2018-11-28T09:32:21.965Z,22.10
2018-11-28T09:34:56.546Z,22.40
2018-11-28T09:37:31.220Z,22.93
2018-11-28T09:40:18.685Z,22.27
2018-11-28T09:42:55.039Z,22.10
2018-11-28T09:45:29.758Z,19.00
2018-11-28T09:48:04.454Z,20.90
2018-11-28T09:50:39.310Z,20.87
2018-11-28T09:53:14.004Z,18.87
2018-11-28T09:55:48.452Z,18.13
2018-11-28T09:58:22.910Z,20.63
2018-11-28T10:00:57.965Z,24.40
2018-11-28T10:03:32.701Z,21.10
2018-11-28T10:06:07.321Z,22.33
2018-11-28T10:08:42.012Z,21.67
2018-11-28T10:11:16.878Z,22.20
2018-11-28T10:13:52.061Z,23.33
2018-11-28T10:16:27.972Z,22.40
2018-11-28T10:19:02.942Z,24.37
2018-11-28T10:21:37.834Z,21.80
2018-11-28T10:24:12.641Z,24.17
2018-11-28T10:26:47.370Z,22.57
2018-11-28T10:29:22.737Z,23.93
2018-11-28T10:31:58.694Z,23.83
2018-11-28T10:34:33.340Z,24.60
2018-11-28T10:37:08.152Z,24.53
2018-11-28T10:39:42.892Z,22.83
2018-11-28T10:42:17.437Z,20.03
2018-11-28T10:44:52.029Z,21.80
2018-11-28T10:47:26.844Z,20.43
2018-11-28T10:50:01.741Z,20.70
2018-11-28T10:52:37.705Z,23.47
2018-11-28T10:55:16.263Z,21.27
2018-11-28T10:57:51.380Z,23.27
2018-11-28T11:00:33.954Z,25.27
2018-11-28T11:03:13.998Z,21.70
2018-11-28T11:05:54.670Z,22.57
2018-11-28T11:08:34.672Z,22.43
2018-11-28T11:11:14.581Z,23.77
2018-11-28T11:13:54.852Z,22.60
2018-11-28T11:16:31.508Z,24.57
2018-11-28T11:19:06.346Z,23.00
2018-11-28T11:21:41.089Z,23.80
2018-11-28T11:24:15.698Z,21.60
2018-11-28T11:26:50.511Z,25.60
2018-11-28T11:29:25.297Z,26.37
2018-11-28T11:32:00.003Z,25.20
2018-11-28T11:34:34.629Z,24.50
2018-11-28T11:37:09.389Z,21.53
2018-11-28T11:39:44.185Z,20.40
2018-11-28T11:42:18.862Z,24.57
2018-11-28T11:44:53.293Z,23.67
2018-11-28T11:47:28.937Z,24.63
2018-11-28T11:50:03.845Z,23.33
2018-11-28T11:52:38.893Z,24.50
2018-11-28T11:55:16.733Z,25.90
2018-11-28T11:57:51.368Z,25.67
2018-11-28T12:00:26.669Z,23.23
2018-11-28T12:03:07.899Z,21.70
2018-11-28T12:05:58.737Z,19.93
2018-11-28T12:08:33.439Z,21.00
2018-11-28T12:11:08.047Z,20.07
2018-11-28T12:13:43.259Z,20.17
2018-11-28T12:16:21.548Z,21.70
2018-11-28T12:18:52.286Z,17.73
2018-11-28T12:21:27.709Z,20.70
2018-11-28T12:24:02.326Z,23.53
2018-11-28T12:26:37.190Z,24.20
2018-11-28T12:29:11.951Z,18.27
2018-11-28T12:31:47.709Z,21.83
2018-11-28T12:34:22.433Z,22.30
2018-11-28T12:36:57.296Z,20.03
2018-11-28T12:39:31.916Z,23.40
2018-11-28T12:42:06.677Z,22.10
2018-11-28T12:44:41.368Z,18.70
2018-11-28T12:47:16.065Z,24.70
2018-11-28T12:49:50.902Z,22.73
2018-11-28T12:52:26.600Z,20.50
2018-11-28T12:55:01.532Z,22.83
2018-11-28T12:57:37.569Z,22.50
2018-11-28T13:00:13.972Z,23.57
2018-11-28T13:02:49.741Z,23.27
2018-11-28T13:05:25.979Z,22.37
2018-11-28T13:08:00.763Z,25.43
2018-11-28T13:10:36.927Z,22.43
2018-11-28T13:13:11.985Z,19.30
2018-11-28T13:15:46.746Z,19.37
2018-11-28T13:18:22.361Z,20.17
2018-11-28T13:20:57.080Z,21.70
2018-11-28T13:23:32.040Z,21.33
2018-11-28T13:26:06.988Z,22.27
2018-11-28T13:28:41.619Z,17.50
2018-11-28T13:31:16.556Z,21.93
2018-11-28T13:33:51.464Z,17.20
2018-11-28T13:36:27.344Z,21.80
2018-11-28T13:39:02.281Z,19.20
2018-11-28T13:41:37.234Z,20.57
2018-11-28T13:44:12.078Z,19.77
2018-11-28T13:46:46.849Z,19.00
2018-11-28T13:49:21.989Z,19.60
2018-11-28T13:51:56.656Z,17.13
2018-11-28T13:54:31.221Z,17.80
2018-11-28T13:57:07.658Z,19.80
2018-11-28T13:59:40.419Z,20.00
2018-11-28T14:02:14.900Z,20.67
2018-11-28T14:04:49.794Z,19.13
2018-11-28T14:07:25.545Z,17.43
2018-11-28T14:10:00.357Z,19.00
2018-11-28T14:12:34.875Z,17.87
2018-11-28T14:15:18.444Z,17.17
2018-11-28T14:17:58.901Z,19.30
2018-11-28T14:20:34.911Z,20.83
2018-11-28T14:23:09.854Z,17.17
2018-11-28T14:25:44.524Z,18.17
2018-11-28T14:28:18.952Z,19.43
2018-11-28T14:30:53.630Z,17.37
2018-11-28T14:33:31.301Z,19.97
2018-11-28T14:36:06.516Z,16.53
2018-11-28T14:38:41.142Z,18.00
2018-11-28T14:41:15.873Z,19.10
2018-11-28T14:43:50.321Z,18.77
2018-11-28T14:46:25.149Z,16.10
2018-11-28T14:48:59.968Z,19.30
2018-11-28T14:51:34.820Z,19.60
2018-11-28T14:54:10.325Z,19.87
2018-11-28T14:56:51.455Z,19.07
2018-11-28T14:59:26.351Z,19.40
2018-11-28T15:02:01.006Z,18.10
2018-11-28T15:04:35.830Z,17.87
2018-11-28T15:07:11.663Z,17.47
2018-11-28T15:09:53.273Z,21.87
2018-11-28T15:12:30.406Z,20.63
2018-11-28T15:15:06.170Z,18.30
2018-11-28T15:17:41.639Z,17.77
2018-11-28T15:20:16.303Z,22.07
2018-11-28T15:22:52.544Z,21.40
2018-11-28T15:25:26.919Z,21.20
2018-11-28T15:28:02.946Z,22.20
2018-11-28T15:30:37.591Z,21.37
2018-11-28T15:33:12.608Z,21.47
2018-11-28T15:35:47.349Z,23.23
2018-11-28T15:38:22.353Z,21.40
2018-11-28T15:43:37.718Z,22.63
2018-11-28T15:46:15.063Z,20.30
2018-11-28T15:48:48.925Z,22.80
2018-11-28T15:51:24.372Z,22.87
2018-11-28T15:53:59.784Z,22.10
2018-11-28T15:56:34.860Z,23.30
2018-11-28T15:59:13.205Z,20.10
2018-11-28T16:01:48.351Z,22.73
2018-11-28T16:04:23.670Z,21.87
2018-11-28T16:06:58.827Z,23.07
2018-11-28T16:10:43.731Z,21.77
2018-11-28T16:13:18.971Z,23.83
2018-11-28T16:15:54.753Z,21.83
2018-11-28T16:18:30.437Z,19.20
2018-11-28T16:21:05.568Z,19.43
2018-11-28T16:23:40.587Z,22.23
2018-11-28T16:26:16.070Z,22.40
2018-11-28T16:28:50.692Z,22.07
2018-11-28T16:31:26.589Z,22.80
2018-11-28T16:34:01.133Z,19.57
2018-11-28T16:36:36.075Z,17.70
2018-11-28T16:39:10.533Z,17.50
2018-11-28T16:41:45.282Z,21.23
2018-11-28T16:44:20.387Z,19.67
2018-11-28T16:46:54.932Z,20.93
2018-11-28T16:49:30.529Z,19.30
2018-11-28T16:52:05.662Z,19.07
2018-11-28T16:54:41.650Z,20.93
2018-11-28T16:57:17.400Z,22.97
2018-11-28T16:59:52.277Z,18.77
2018-11-28T17:02:27.247Z,21.90
2018-11-28T17:05:02.208Z,18.10
2018-11-28T17:07:37.742Z,21.10
2018-11-28T17:10:14.933Z,16.60
2018-11-28T17:12:50.408Z,19.57
2018-11-28T17:15:25.316Z,20.77
2018-11-28T17:18:00.867Z,20.80
2018-11-28T17:20:36.955Z,21.40
2018-11-28T17:23:11.870Z,17.13
2018-11-28T17:25:46.487Z,18.30
2018-11-28T17:28:21.154Z,18.77
2018-11-28T17:30:56.829Z,17.43
2018-11-28T17:33:31.590Z,21.70
2018-11-28T17:36:06.836Z,19.03
2018-11-28T17:38:42.185Z,20.43
2018-11-28T17:41:19.159Z,17.10
2018-11-28T17:43:53.800Z,20.40
2018-11-28T17:46:29.757Z,17.43
2018-11-28T17:49:06.260Z,17.50
2018-11-28T17:51:39.881Z,18.57
2018-11-28T17:54:15.707Z,19.00
2018-11-28T17:56:50.372Z,17.47
2018-11-28T17:59:25.258Z,20.10
2018-11-28T18:02:00.259Z,18.70
2018-11-28T18:04:34.792Z,21.10
2018-11-28T18:07:09.511Z,20.87
2018-11-28T18:09:45.095Z,18.57
2018-11-28T18:12:20.106Z,17.50
2018-11-28T18:14:55.495Z,18.53
2018-11-28T18:17:30.423Z,18.67
2018-11-28T18:20:04.956Z,17.57
2018-11-28T18:22:39.724Z,20.90
2018-11-28T18:25:14.642Z,20.20
2018-11-28T18:27:49.975Z,20.27
2018-11-28T18:30:24.394Z,21.03
2018-11-28T18:32:59.717Z,20.97
2018-11-28T18:35:34.429Z,19.20
2018-11-28T18:38:09.350Z,20.10
2018-11-28T18:40:44.082Z,20.50
2018-11-28T18:43:18.898Z,19.10
2018-11-28T18:45:54.763Z,18.80
2018-11-28T18:48:30.287Z,17.33
2018-11-28T18:51:05.184Z,19.97
2018-11-28T18:53:39.817Z,20.67
2018-11-28T18:56:14.612Z,19.93
2018-11-28T18:58:50.137Z,19.30
2018-11-28T19:01:24.830Z,18.23
2018-11-28T19:03:59.325Z,19.67
2018-11-28T19:06:33.924Z,18.30
2018-11-28T19:09:13.980Z,18.87
2018-11-28T19:11:51.695Z,20.50
2018-11-28T19:14:30.925Z,18.60
2018-11-28T19:17:09.132Z,20.10
2018-11-28T19:19:56.689Z,21.13
2018-11-28T19:22:31.458Z,19.27
2018-11-28T19:25:08.569Z,19.80
2018-11-28T19:27:43.409Z,17.50
2018-11-28T19:33:02.209Z,20.03
2018-11-28T19:34:39.898Z,19.13
2018-11-28T19:35:37.762Z,19.00
2018-11-28T19:38:13.854Z,19.27
2018-11-28T19:40:54.542Z,20.33
2018-11-28T19:43:29.050Z,18.47
2018-11-28T19:46:03.755Z,16.80
2018-11-28T19:48:38.581Z,18.83
2018-11-28T19:51:13.545Z,18.40
2018-11-28T19:53:48.236Z,18.70
2018-11-28T19:56:23.116Z,18.73
2018-11-28T19:59:03.944Z,18.87
2018-11-28T20:01:38.805Z,17.27
2018-11-28T20:04:13.645Z,17.03
2018-11-28T20:06:49.621Z,17.90
2018-11-28T20:09:24.436Z,17.47
2018-11-28T20:11:59.232Z,18.53
2018-11-28T20:14:37.724Z,16.30
2018-11-28T20:17:13.151Z,18.97
2018-11-28T20:19:48.062Z,17.17
2018-11-28T20:22:22.537Z,16.70
2018-11-28T20:24:58.152Z,17.63
2018-11-28T20:27:32.573Z,18.30
2018-11-28T20:30:18.572Z,18.17
2018-11-28T20:32:53.299Z,15.40
2018-11-28T20:35:29.943Z,18.80
2018-11-28T20:38:04.941Z,16.43
2018-11-28T20:40:39.893Z,16.70
2018-11-28T20:43:15.225Z,16.20
2018-11-28T20:45:49.893Z,17.43
2018-11-28T20:48:24.908Z,17.43
2018-11-28T20:50:59.644Z,17.90
2018-11-28T20:53:34.294Z,17.30
2018-11-28T20:56:11.390Z,16.50
2018-11-28T20:58:46.200Z,18.07
2018-11-28T21:01:20.964Z,19.77
2018-11-28T21:03:55.691Z,18.20
2018-11-28T21:06:30.263Z,17.00
2018-11-28T21:09:09.001Z,18.60
2018-11-28T21:11:43.954Z,19.53
2018-11-28T21:14:18.746Z,18.33
2018-11-28T21:16:57.416Z,19.47
2018-11-28T21:19:32.182Z,17.17
2018-11-28T21:22:06.899Z,18.00
2018-11-28T21:24:41.735Z,16.77
2018-11-28T21:27:16.629Z,17.90
2018-11-28T21:29:52.206Z,17.60
2018-11-28T21:32:26.834Z,17.27
2018-11-28T21:35:01.958Z,18.20
2018-11-28T21:37:36.720Z,19.40
2018-11-28T21:40:11.872Z,17.87
2018-11-28T21:42:46.751Z,17.03
2018-11-28T21:45:22.093Z,17.90
2018-11-28T21:47:56.953Z,17.00
2018-11-28T21:50:31.624Z,17.87
2018-11-28T21:53:08.233Z,18.07
2018-11-28T21:55:43.053Z,18.30
2018-11-28T21:58:17.897Z,18.10
2018-11-28T22:00:52.646Z,20.17
2018-11-28T22:03:27.418Z,18.33
2018-11-28T22:06:02.274Z,17.47
2018-11-28T22:08:36.957Z,18.23
2018-11-28T22:11:11.745Z,16.57
2018-11-28T22:13:46.380Z,16.90
2018-11-28T22:16:21.277Z,17.90
2018-11-28T22:19:23.475Z,16.97
2018-11-28T22:26:23.299Z,18.67
2018-11-28T22:29:22.217Z,18.63
2018-11-28T22:32:02.266Z,18.53
2018-11-28T22:34:36.846Z,19.03
2018-11-28T22:37:11.321Z,18.53
2018-11-28T22:39:45.900Z,18.13
2018-11-28T22:42:22.826Z,16.90
2018-11-28T22:44:58.680Z,19.20
2018-11-28T22:47:32.690Z,20.03
2018-11-28T22:50:08.464Z,18.50
2018-11-28T22:52:43.345Z,21.40
2018-11-28T22:55:18.480Z,21.20
2018-11-28T22:57:53.272Z,19.77
2018-11-28T23:00:33.527Z,18.87
2018-11-28T23:03:09.475Z,20.60
2018-11-28T23:05:45.476Z,17.30
2018-11-28T23:08:21.304Z,21.37
2018-11-28T23:10:56.091Z,20.43
2018-11-28T23:13:30.736Z,16.57
2018-11-28T23:16:06.528Z,21.03
2018-11-28T23:18:41.402Z,15.90
2018-11-28T23:21:16.028Z,20.60
2018-11-28T23:23:51.000Z,20.17
2018-11-28T23:26:25.753Z,18.07
2018-11-28T23:29:00.668Z,16.60
2018-11-28T23:31:35.580Z,17.47
2018-11-28T23:34:10.706Z,18.30
2018-11-28T23:36:45.635Z,18.60
2018-11-28T23:39:20.553Z,18.00
2018-11-28T23:41:55.316Z,16.70
2018-11-28T23:44:30.150Z,16.90
2018-11-28T23:47:05.131Z,16.43
2018-11-28T23:49:39.430Z,17.37
2018-11-28T23:52:14.174Z,16.43
2018-11-28T23:54:48.928Z,18.47
2018-11-28T23:57:23.672Z,17.77
2018-11-28T23:59:58.382Z,18.57
